Time;durP1;ratioP1;P1;durP2;ratioP2;P2;SDS_P1;SDS_P2;PMS_P1;PMS_P2;Temp;Humidity;BMP_temperature;BMP_pressure;BME280_temperature;BME280_humidity;BME280_pressure;Samples;Min_cycle;Max_cycle;Signal;HPM_P1;HPM_P2
2022/09/29 00:00:29;;;;;;;6.75;4.03;;;;;;;8.70;nan;98982.50;4937082;28;20051;-71
2022/09/29 00:02:55;;;;;;;6.15;3.70;;;;;;;8.65;nan;98983.03;4936417;28;20504;-70
2022/09/29 00:05:20;;;;;;;6.25;4.53;;;;;;;8.61;nan;98992.28;4948493;28;20042;-71
2022/09/29 00:07:46;;;;;;;10.43;5.60;;;;;;;8.55;nan;98985.06;4929964;28;20035;-71
2022/09/29 00:10:11;;;;;;;7.57;4.97;;;;;;;8.53;nan;98983.59;4935997;28;20091;-70
2022/09/29 00:12:36;;;;;;;6.83;4.63;;;;;;;8.47;nan;98993.03;4926051;28;20396;-71
2022/09/29 00:15:02;;;;;;;7.43;4.40;;;;;;;8.42;nan;98992.75;4940443;28;20283;-70
2022/09/29 00:17:27;;;;;;;8.85;5.15;;;;;;;8.41;nan;98986.66;4941869;28;20142;-71
2022/09/29 00:19:53;;;;;;;7.57;5.25;;;;;;;8.37;nan;98981.91;4937113;28;20187;-68
2022/09/29 00:22:18;;;;;;;8.18;4.88;;;;;;;8.36;nan;98977.63;4921660;29;20047;-68
2022/09/29 00:24:45;;;;;;;6.50;4.53;;;;;;;8.32;nan;98989.47;4914978;28;20058;-68
2022/09/29 00:27:13;;;;;;;4.88;3.70;;;;;;;8.26;nan;98986.56;4921480;29;20040;-68
2022/09/29 00:29:39;;;;;;;5.35;3.70;;;;;;;8.20;nan;98981.16;4923917;28;20039;-68
2022/09/29 00:32:04;;;;;;;8.48;5.07;;;;;;;8.18;nan;98984.00;4936268;28;20111;-70
2022/09/29 00:34:29;;;;;;;7.60;4.82;;;;;;;8.17;nan;98986.78;4926184;28;20562;-68
2022/09/29 00:36:54;;;;;;;7.47;4.93;;;;;;;8.16;nan;98983.34;4928266;29;20094;-68
2022/09/29 00:39:20;;;;;;;5.90;4.50;;;;;;;8.16;nan;98978.06;4929704;28;20319;-68
2022/09/29 00:41:45;;;;;;;5.40;4.20;;;;;;;8.23;nan;98980.84;4937777;28;20420;-68
2022/09/29 00:44:13;;;;;;;;;;;;;;;8.17;nan;98982.34;4919102;28;20036;-68
2022/09/29 00:46:59;;;;;;;5.53;4.43;;;;;;;8.13;nan;98988.13;4927335;28;20282;-68
2022/09/29 00:49:34;;;;;;;7.47;4.80;;;;;;;8.11;nan;98977.78;4931867;28;20043;-70
2022/09/29 00:52:11;;;;;;;;;;;;;;;8.08;nan;98984.22;4937387;28;20043;-70
2022/09/29 00:54:49;;;;;;;5.57;4.45;;;;;;;8.04;nan;98980.28;4930121;28;19919;-70
2022/09/29 00:57:19;;;;;;;6.30;3.85;;;;;;;8.01;nan;98982.47;4931226;28;20090;-70
2022/09/29 00:59:57;;;;;;;6.20;4.30;;;;;;;7.96;nan;98982.97;4932422;28;20519;-70
2022/09/29 01:02:23;;;;;;;5.47;3.60;;;;;;;7.90;nan;98974.94;4932914;28;20126;-71
2022/09/29 01:04:51;;;;;;;5.38;4.00;;;;;;;7.86;nan;98985.81;4930489;28;20604;-70
2022/09/29 01:07:18;;;;;;;5.78;4.32;;;;;;;7.82;nan;98976.63;4936902;28;20417;-70
2022/09/29 01:09:43;;;;;;;5.20;3.85;;;;;;;7.77;nan;98978.97;4941376;28;20059;-70
2022/09/29 01:12:08;;;;;;;4.43;3.45;;;;;;;7.68;nan;98982.63;4920794;28;20075;-71
2022/09/29 01:14:36;;;;;;;5.40;3.25;;;;;;;7.59;nan;98978.38;4944260;28;20364;-70
2022/09/29 01:17:03;;;;;;;3.95;3.15;;;;;;;7.50;nan;98977.56;4936398;28;20572;-74
2022/09/29 01:19:45;;;;;;;3.53;2.70;;;;;;;7.44;nan;98980.91;4921174;28;20050;-72
2022/09/29 01:22:24;;;;;;;4.15;3.05;;;;;;;7.34;nan;98981.09;4924642;28;20489;-71
2022/09/29 01:24:57;;;;;;;3.78;2.80;;;;;;;7.30;nan;98981.59;4926065;29;20043;-70
2022/09/29 01:27:35;;;;;;;4.45;3.35;;;;;;;7.25;nan;98978.66;4927128;28;20115;-70
2022/09/29 01:30:19;;;;;;;4.75;3.33;;;;;;;7.20;nan;98973.91;4917531;29;20037;-73
2022/09/29 01:32:53;;;;;;;;;;;;;;;7.15;nan;98982.28;4921012;28;20035;-71
2022/09/29 01:35:39;;;;;;;4.38;3.00;;;;;;;7.10;nan;98976.69;4925014;28;19918;-71
2022/09/29 01:38:34;;;;;;;4.78;3.17;;;;;;;7.07;nan;98978.84;4925933;28;20036;-70
2022/09/29 01:41:14;;;;;;;3.55;2.72;;;;;;;7.00;nan;98974.25;4931911;28;20088;-73
2022/09/29 01:43:52;;;;;;;3.53;2.40;;;;;;;6.92;nan;98969.03;4932820;28;20051;-70
2022/09/29 01:46:26;;;;;;;4.72;2.90;;;;;;;6.87;nan;98973.13;4934122;28;20555;-70
2022/09/29 01:48:54;;;;;;;3.80;2.78;;;;;;;6.82;nan;98973.63;4915963;29;20048;-71
2022/09/29 01:51:27;;;;;;;2.75;2.10;;;;;;;6.76;nan;98982.16;4921826;28;20256;-71
2022/09/29 01:53:56;;;;;;;4.07;2.30;;;;;;;6.69;nan;98986.44;4926187;28;20032;-70
2022/09/29 01:56:29;;;;;;;3.30;2.20;;;;;;;6.62;nan;98986.28;4915613;28;20063;-70
2022/09/29 01:59:01;;;;;;;;;;;;;;;6.56;nan;98989.56;4931738;29;20445;-70
2022/09/29 02:01:33;;;;;;;4.18;2.70;;;;;;;6.51;nan;98990.06;4928437;28;20056;-70
2022/09/29 02:04:10;;;;;;;3.28;2.40;;;;;;;6.46;nan;98992.34;4924837;29;20044;-70
2022/09/29 02:06:43;;;;;;;4.15;3.35;;;;;;;6.54;nan;98992.34;4917407;29;20425;-70
2022/09/29 02:09:13;;;;;;;4.70;3.60;;;;;;;6.61;nan;98992.53;4932954;28;20431;-70
2022/09/29 02:11:41;;;;;;;6.23;3.83;;;;;;;6.57;nan;98991.19;4924663;28;20153;-72
2022/09/29 02:14:14;;;;;;;4.80;3.65;;;;;;;6.54;nan;98987.09;4942833;28;20044;-70
2022/09/29 02:16:53;;;;;;;4.88;3.08;;;;;;;6.51;nan;98997.13;4949415;28;20027;-70
2022/09/29 02:19:23;;;;;;;5.13;3.22;;;;;;;6.44;nan;98993.50;4930918;28;20110;-68
2022/09/29 02:21:50;;;;;;;4.60;2.50;;;;;;;6.38;nan;99003.66;4916504;28;20154;-68
2022/09/29 02:24:16;;;;;;;3.53;2.40;;;;;;;6.32;nan;99000.88;4921228;28;20039;-68
2022/09/29 02:26:44;;;;;;;3.22;2.42;;;;;;;6.28;nan;99004.78;4929027;28;20501;-67
2022/09/29 02:29:09;;;;;;;4.13;2.40;;;;;;;6.23;nan;99005.28;4923161;28;20032;-68
2022/09/29 02:31:37;;;;;;;3.25;2.30;;;;;;;6.22;nan;99002.81;4919173;29;20042;-68
2022/09/29 02:34:03;;;;;;;2.80;2.03;;;;;;;6.22;nan;99010.69;4917593;29;20036;-68
2022/09/29 02:36:51;;;;;;;2.70;2.00;;;;;;;6.23;nan;99007.91;4922907;28;20037;-68
2022/09/29 02:39:38;;;;;;;4.63;2.30;;;;;;;6.24;nan;99003.47;4923057;28;20042;-67
2022/09/29 02:42:26;;;;;;;2.95;2.10;;;;;;;6.22;nan;99002.81;4934317;28;20565;-68
2022/09/29 02:45:05;;;;;;;5.10;2.97;;;;;;;6.20;nan;99010.00;4931374;28;20135;-68
2022/09/29 02:47:55;;;;;;;5.07;3.08;;;;;;;6.22;nan;99002.81;4923401;28;20043;-68
2022/09/29 02:50:31;;;;;;;5.35;3.95;;;;;;;6.25;nan;99000.69;4918812;28;20639;-68
2022/09/29 02:53:31;;;;;;;7.88;5.03;;;;;;;6.26;nan;98999.69;4941360;28;20497;-68
2022/09/29 02:56:15;;;;;;;7.75;4.97;;;;;;;6.27;nan;99001.34;4940129;28;20036;-68
2022/09/29 02:58:59;;;;;;;6.72;4.65;;;;;;;6.25;nan;99007.75;4943162;28;20050;-68
2022/09/29 03:01:24;;;;;;;6.15;4.55;;;;;;;6.23;nan;99007.91;4925752;28;20545;-68
2022/09/29 03:03:49;;;;;;;6.50;4.47;;;;;;;6.20;nan;99007.38;4931728;29;20036;-67
2022/09/29 03:06:17;;;;;;;6.38;4.20;;;;;;;6.19;nan;99006.56;4925424;28;20040;-68
2022/09/29 03:08:42;;;;;;;7.28;4.57;;;;;;;6.24;nan;99006.09;4923847;28;20084;-68
2022/09/29 03:11:08;;;;;;;6.75;4.22;;;;;;;6.29;nan;99007.28;4928026;29;20398;-68
2022/09/29 03:13:33;;;;;;;6.35;3.83;;;;;;;6.42;nan;99009.41;4920152;29;20111;-68
2022/09/29 03:15:58;;;;;;;5.47;3.80;;;;;;;6.49;nan;99005.16;4939509;28;20350;-68
2022/09/29 03:18:24;;;;;;;10.27;3.35;;;;;;;6.55;nan;98996.63;4925287;28;20146;-68
2022/09/29 03:20:49;;;;;;;7.32;5.15;;;;;;;6.61;nan;98999.59;4938727;28;20067;-68
2022/09/29 03:23:14;;;;;;;11.13;6.13;;;;;;;6.66;nan;99000.72;4925967;28;20043;-68
2022/09/29 03:25:40;;;;;;;8.75;5.65;;;;;;;6.68;nan;99001.38;4939963;28;20123;-68
2022/09/29 03:28:06;;;;;;;8.48;5.57;;;;;;;6.71;nan;99000.22;4932363;28;20044;-68
2022/09/29 03:30:31;;;;;;;6.57;4.60;;;;;;;6.73;nan;99000.88;4931043;28;20038;-68
2022/09/29 03:32:56;;;;;;;6.53;4.85;;;;;;;6.76;nan;98997.94;4934830;28;20040;-71
2022/09/29 03:35:21;;;;;;;7.53;3.88;;;;;;;6.77;nan;98997.78;4931098;28;20039;-70
2022/09/29 03:37:47;;;;;;;10.07;5.40;;;;;;;6.76;nan;99001.38;4932775;28;20054;-70
2022/09/29 03:40:12;;;;;;;5.83;4.00;;;;;;;6.72;nan;99005.34;4921921;28;20048;-68
2022/09/29 03:42:37;;;;;;;10.13;5.50;;;;;;;6.67;nan;99010.22;4920065;29;20481;-68
2022/09/29 03:45:03;;;;;;;9.40;6.47;;;;;;;6.61;nan;99002.22;4932347;28;20263;-68
2022/09/29 03:47:28;;;;;;;8.25;5.25;;;;;;;6.55;nan;99001.88;4936225;28;20040;-68
2022/09/29 03:49:53;;;;;;;9.57;6.43;;;;;;;6.54;nan;99002.84;4922797;28;20042;-68
2022/09/29 03:52:19;;;;;;;11.13;6.67;;;;;;;6.54;nan;98994.16;4932431;28;20046;-68
2022/09/29 03:54:44;;;;;;;11.07;7.40;;;;;;;6.53;nan;98997.75;4937060;28;20279;-68
2022/09/29 03:57:09;;;;;;;10.40;6.90;;;;;;;6.50;nan;98998.91;4918843;29;20131;-68
2022/09/29 03:59:34;;;;;;;9.40;5.93;;;;;;;6.48;nan;99003.50;4930598;28;20449;-68
2022/09/29 04:02:00;;;;;;;7.80;5.55;;;;;;;6.45;nan;98995.94;4924574;28;20039;-68
2022/09/29 04:04:25;;;;;;;10.55;6.20;;;;;;;6.43;nan;98997.91;4923090;28;20059;-68
2022/09/29 04:06:50;;;;;;;9.70;6.20;;;;;;;6.38;nan;99002.84;4924896;28;20039;-68
2022/09/29 04:09:16;;;;;;;9.48;5.68;;;;;;;6.34;nan;98998.88;4923545;29;20098;-68
2022/09/29 04:11:41;;;;;;;8.35;5.00;;;;;;;6.30;nan;98998.41;4921059;29;20403;-68
2022/09/29 04:14:06;;;;;;;6.78;4.93;;;;;;;6.27;nan;99000.50;4922122;28;20032;-68
2022/09/29 04:16:32;;;;;;;7.05;4.68;;;;;;;6.24;nan;98990.34;4941209;28;20027;-68
2022/09/29 04:18:57;;;;;;;6.80;3.67;;;;;;;6.21;nan;98996.75;4941233;28;20042;-68
2022/09/29 04:21:22;;;;;;;5.63;3.60;;;;;;;6.16;nan;98996.41;4939469;28;20039;-68
2022/09/29 04:23:48;;;;;;;7.07;4.82;;;;;;;6.13;nan;98991.50;4927228;29;20043;-68
2022/09/29 04:26:14;;;;;;;7.63;5.15;;;;;;;6.07;nan;98998.19;4931628;29;20098;-68
2022/09/29 04:28:39;;;;;;;7.05;4.93;;;;;;;6.04;nan;98995.06;4922297;28;20040;-68
2022/09/29 04:31:05;;;;;;;6.70;4.45;;;;;;;6.02;nan;98994.41;4920838;29;20040;-68
2022/09/29 04:33:30;;;;;;;5.75;3.47;;;;;;;5.97;nan;98989.63;4915658;29;20494;-71
2022/09/29 04:35:57;;;;;;;5.50;3.45;;;;;;;5.93;nan;98994.38;4912578;29;20393;-70
2022/09/29 04:38:23;;;;;;;5.43;3.88;;;;;;;5.90;nan;98997.28;4933558;28;20070;-72
2022/09/29 04:40:48;;;;;;;8.27;5.22;;;;;;;5.89;nan;98997.47;4917527;28;20044;-71
2022/09/29 04:43:15;;;;;;;8.57;5.38;;;;;;;5.91;nan;98995.47;4940661;28;20126;-71
2022/09/29 04:45:40;;;;;;;6.95;4.88;;;;;;;6.00;nan;98991.13;4919234;29;20040;-69
2022/09/29 04:48:06;;;;;;;6.93;4.20;;;;;;;6.05;nan;98992.25;4928794;28;20686;-70
2022/09/29 04:50:32;;;;;;;6.40;4.18;;;;;;;6.05;nan;98991.44;4930828;28;20035;-70
2022/09/29 04:52:57;;;;;;;5.95;4.15;;;;;;;6.03;nan;98996.03;4937635;28;20031;-70
2022/09/29 04:55:22;;;;;;;4.50;3.10;;;;;;;5.99;nan;98999.97;4931386;28;20063;-71
2022/09/29 04:57:48;;;;;;;4.28;3.10;;;;;;;5.94;nan;98996.03;4914755;29;20360;-70
2022/09/29 05:00:14;;;;;;;6.45;4.28;;;;;;;5.97;nan;98994.88;4934625;28;20693;-70
2022/09/29 05:02:39;;;;;;;6.75;4.72;;;;;;;6.05;nan;99008.00;4920850;28;20520;-70
2022/09/29 05:05:07;;;;;;;9.27;5.93;;;;;;;6.14;nan;99007.06;4921872;28;20028;-70
2022/09/29 05:07:36;;;;;;;9.85;6.30;;;;;;;6.25;nan;99010.38;4915405;28;20485;-71
2022/09/29 05:10:03;;;;;;;7.68;4.82;;;;;;;6.23;nan;99007.91;4922871;29;20142;-72
2022/09/29 05:12:29;;;;;;;6.70;4.50;;;;;;;6.16;nan;99018.22;4932056;28;20041;-70
2022/09/29 05:14:54;;;;;;;7.10;4.28;;;;;;;6.08;nan;99015.59;4929196;28;20031;-72
2022/09/29 05:17:19;;;;;;;6.63;3.90;;;;;;;6.03;nan;99017.03;4925531;29;20134;-69
2022/09/29 05:19:47;;;;;;;4.85;3.28;;;;;;;5.96;nan;99027.34;4918014;28;20040;-68
2022/09/29 05:22:12;;;;;;;6.03;4.00;;;;;;;5.91;nan;99033.03;4932869;28;20051;-71
2022/09/29 05:24:38;;;;;;;6.15;4.32;;;;;;;5.89;nan;99039.44;4932919;28;20036;-72
2022/09/29 05:27:03;;;;;;;6.20;4.32;;;;;;;5.85;nan;99030.22;4938803;28;20050;-70
2022/09/29 05:29:28;;;;;;;5.57;3.80;;;;;;;5.86;nan;99037.91;4930696;28;20073;-70
2022/09/29 05:31:53;;;;;;;4.20;3.03;;;;;;;5.85;nan;99035.47;4934633;29;20035;-73
2022/09/29 05:34:19;;;;;;;4.43;3.17;;;;;;;5.87;nan;99049.25;4918593;28;20048;-71
2022/09/29 05:36:44;;;;;;;3.35;2.65;;;;;;;5.92;nan;99050.41;4920122;29;20052;-68
2022/09/29 05:39:10;;;;;;;4.70;3.05;;;;;;;6.02;nan;99052.94;4917944;29;20047;-68
2022/09/29 05:41:35;;;;;;;4.95;3.70;;;;;;;6.10;nan;99042.50;4928385;29;20402;-71
2022/09/29 05:44:00;;;;;;;8.75;5.03;;;;;;;6.20;nan;99041.50;4933493;28;20055;-73
2022/09/29 05:46:26;;;;;;;6.25;4.10;;;;;;;6.31;nan;99046.47;4920057;28;20055;-68
2022/09/29 05:48:52;;;;;;;6.93;4.72;;;;;;;6.45;nan;99045.03;4920995;28;20032;-68
2022/09/29 05:51:20;;;;;;;9.43;5.50;;;;;;;6.59;nan;99049.63;4917933;29;20043;-68
2022/09/29 05:53:46;;;;;;;10.35;6.35;;;;;;;6.74;nan;99041.94;4921014;28;20494;-68
2022/09/29 05:56:14;;;;;;;9.20;6.10;;;;;;;6.94;nan;99048.50;4921221;28;20039;-68
2022/09/29 05:58:40;;;;;;;8.40;5.57;;;;;;;7.17;nan;99053.06;4925515;28;20139;-68
2022/09/29 06:01:12;;;;;;;9.43;5.78;;;;;;;7.29;nan;99057.00;4912268;29;20127;-68
2022/09/29 06:03:38;;;;;;;9.40;5.25;;;;;;;7.37;nan;99057.00;4919662;28;20064;-68
2022/09/29 06:06:11;;;;;;;7.78;5.07;;;;;;;7.44;nan;99060.59;4924347;28;20478;-65
2022/09/29 06:08:44;;;;;;;6.55;4.40;;;;;;;7.50;nan;99059.09;4920978;28;20048;-66
2022/09/29 06:11:12;;;;;;;8.52;5.50;;;;;;;7.55;nan;99053.34;4935936;29;20417;-66
2022/09/29 06:13:39;;;;;;;6.70;4.20;;;;;;;7.67;nan;99065.13;4924776;28;20096;-65
2022/09/29 06:16:06;;;;;;;5.68;3.80;;;;;;;7.86;nan;99066.56;4938387;28;20441;-66
2022/09/29 06:18:31;;;;;;;6.72;4.05;;;;;;;8.24;nan;99062.28;4948902;28;20086;-66
2022/09/29 06:21:01;;;;;;;4.43;3.03;;;;;;;8.67;nan;99061.88;4939053;28;20044;-66
2022/09/29 06:23:27;;;;;;;4.65;2.83;;;;;;;9.27;nan;99065.53;4954308;28;20031;-66
2022/09/29 06:26:00;;;;;;;4.38;2.63;;;;;;;9.77;nan;99064.84;4932181;28;20082;-66
2022/09/29 06:28:27;;;;;;;4.10;3.03;;;;;;;10.04;nan;99069.66;4913975;29;20064;-66
2022/09/29 06:30:57;;;;;;;5.45;3.28;;;;;;;10.28;nan;99058.81;4930196;28;20110;-67
2022/09/29 06:33:23;;;;;;;6.57;4.80;;;;;;;10.30;nan;99062.09;4916789;28;20044;-66
2022/09/29 06:38:33;;;;;;;9.07;6.35;;;;;;;10.19;nan;99063.34;4927374;28;20047;-67
2022/09/29 06:40:58;;;;;;;9.35;6.00;;;;;;;10.12;nan;99066.91;4931509;28;20032;-66
2022/09/29 06:43:24;;;;;;;8.77;5.47;;;;;;;10.07;nan;99075.38;4945567;28;20051;-66
2022/09/29 06:45:49;;;;;;;7.85;4.97;;;;;;;10.07;nan;99067.47;4939861;28;20054;-66
2022/09/29 06:48:14;;;;;;;7.82;5.45;;;;;;;10.12;nan;99067.72;4944168;28;20139;-66
2022/09/29 06:50:39;;;;;;;9.35;5.80;;;;;;;10.21;nan;99068.44;4939907;28;20440;-66
2022/09/29 06:53:05;;;;;;;9.05;6.28;;;;;;;10.25;nan;99068.88;4939812;28;20039;-66
2022/09/29 06:55:30;;;;;;;7.93;6.25;;;;;;;10.47;nan;99069.78;4933651;28;20239;-66
2022/09/29 06:57:55;;;;;;;;;;;;;;;10.73;nan;99071.88;4938853;28;20441;-66
2022/09/29 07:00:21;;;;;;;8.52;5.50;;;;;;;10.75;nan;99072.50;4939592;28;19926;-67
2022/09/29 07:02:46;;;;;;;9.70;5.60;;;;;;;10.77;nan;99075.78;4929922;29;20476;-66
2022/09/29 07:05:11;;;;;;;7.63;5.50;;;;;;;10.91;nan;99074.06;4932712;28;20412;-66
2022/09/29 07:07:37;;;;;;;7.33;5.40;;;;;;;11.20;nan;99078.38;4942633;28;20993;-66
2022/09/29 07:10:02;;;;;;;6.30;4.90;;;;;;;11.40;nan;99070.63;4933696;28;20500;-66
2022/09/29 07:12:27;;;;;;;6.15;4.35;;;;;;;11.57;nan;99076.44;4940147;28;20485;-67
2022/09/29 07:14:53;;;;;;;3.80;3.20;;;;;;;11.79;nan;99080.63;4935189;28;20400;-67
2022/09/29 07:17:18;;;;;;;4.80;3.30;;;;;;;11.99;nan;99080.78;4929294;28;20472;-66
2022/09/29 07:19:43;;;;;;;5.28;3.70;;;;;;;11.98;nan;99080.97;4935959;28;20032;-67
2022/09/29 07:22:08;;;;;;;4.45;3.30;;;;;;;11.87;nan;99075.22;4922326;28;20135;-67
2022/09/29 07:24:34;;;;;;;4.45;3.42;;;;;;;11.76;nan;99074.91;4940258;28;20113;-66
2022/09/29 07:27:00;;;;;;;7.53;4.72;;;;;;;11.59;nan;99072.56;4939141;28;20040;-67
2022/09/29 07:29:25;;;;;;;7.00;4.70;;;;;;;11.38;nan;99072.63;4937439;28;20425;-66
2022/09/29 07:31:51;;;;;;;6.57;4.75;;;;;;;11.24;nan;99079.66;4913495;29;20523;-66
2022/09/29 07:34:17;;;;;;;6.47;4.10;;;;;;;11.19;nan;99076.75;4940690;28;20099;-67
2022/09/29 07:36:42;;;;;;;6.93;4.53;;;;;;;11.25;nan;99079.47;4932142;28;20050;-66
2022/09/29 07:39:08;;;;;;;9.88;6.63;;;;;;;11.33;nan;99080.34;4933876;28;20039;-67
2022/09/29 07:41:33;;;;;;;9.73;5.97;;;;;;;11.40;nan;99074.06;4945491;28;20091;-67
2022/09/29 07:43:58;;;;;;;9.15;5.72;;;;;;;11.70;nan;99081.78;4928640;28;20299;-66
2022/09/29 07:46:24;;;;;;;6.38;4.25;;;;;;;12.07;nan;99090.41;4938818;28;20032;-66
2022/09/29 07:48:49;;;;;;;5.32;3.97;;;;;;;12.61;nan;99078.13;4937040;28;20050;-67
2022/09/29 07:51:17;;;;;;;5.37;3.53;;;;;;;13.32;nan;99086.44;4936955;29;20035;-67
2022/09/29 07:53:43;;;;;;;4.53;2.90;;;;;;;13.94;nan;99084.28;4934889;28;20345;-67
2022/09/29 07:56:13;;;;;;;3.97;2.70;;;;;;;14.72;nan;99091.31;4938576;28;20035;-67
2022/09/29 07:58:39;;;;;;;4.97;3.50;;;;;;;15.36;nan;99088.59;4930593;28;20032;-67
2022/09/29 08:01:09;;;;;;;5.40;3.30;;;;;;;16.05;nan;99087.53;4936330;28;20390;-67
2022/09/29 08:03:35;;;;;;;6.25;4.18;;;;;;;15.96;nan;99093.38;4940121;28;20509;-68
2022/09/29 08:06:00;;;;;;;4.88;3.42;;;;;;;16.40;nan;99096.75;4935485;28;20058;-67
2022/09/29 08:08:26;;;;;;;4.35;2.90;;;;;;;17.00;nan;99101.31;4929826;28;20508;-67
2022/09/29 08:10:51;;;;;;;5.35;3.80;;;;;;;16.97;nan;99105.22;4936493;28;20508;-67
2022/09/29 08:13:16;;;;;;;4.32;3.38;;;;;;;16.64;nan;99109.16;4931234;28;20040;-67
2022/09/29 08:15:42;;;;;;;6.85;4.78;;;;;;;16.23;nan;99112.56;4937419;28;20039;-67
2022/09/29 08:18:07;;;;;;;6.47;4.47;;;;;;;16.05;nan;99118.72;4931140;28;20044;-67
2022/09/29 08:20:35;;;;;;;5.70;3.85;;;;;;;17.00;nan;99123.47;4935576;29;20064;-67
2022/09/29 08:23:00;;;;;;;4.50;3.47;;;;;;;18.01;nan;99108.22;4927879;28;20044;-67
2022/09/29 08:25:25;;;;;;;6.10;3.67;;;;;;;18.47;nan;99113.69;4922712;29;20050;-67
2022/09/29 08:27:52;;;;;;;4.68;3.10;;;;;;;18.76;nan;99121.72;4936202;28;20039;-67
2022/09/29 08:30:17;;;;;;;4.90;3.60;;;;;;;18.34;nan;99130.03;4931796;28;20519;-67
2022/09/29 08:32:43;;;;;;;5.55;3.90;;;;;;;17.67;nan;99127.75;4932730;28;20036;-67
2022/09/29 08:35:09;;;;;;;5.53;3.80;;;;;;;17.10;nan;99137.09;4927835;28;20156;-67
2022/09/29 08:37:34;;;;;;;6.80;5.20;;;;;;;16.84;nan;99135.63;4936848;28;20047;-67
2022/09/29 08:39:59;;;;;;;5.97;4.45;;;;;;;16.71;nan;99139.25;4929256;28;20304;-67
2022/09/29 08:43:01;;;;;;;6.43;4.70;;;;;;;16.67;nan;99142.59;4938317;28;20047;-67
2022/09/29 08:45:31;;;;;;;6.20;4.80;;;;;;;16.34;nan;99141.16;4935130;28;20106;-66
2022/09/29 08:48:08;;;;;;;8.00;5.50;;;;;;;16.03;nan;99139.44;4935236;28;20382;-67
2022/09/29 08:50:46;;;;;;;9.20;6.53;;;;;;;15.57;nan;99146.81;4918954;28;20518;-67
2022/09/29 08:53:15;;;;;;;8.13;5.60;;;;;;;15.29;nan;99147.25;4941491;28;20629;-66
2022/09/29 08:55:51;;;;;;;9.63;5.63;;;;;;;15.13;nan;99143.25;4946678;28;20042;-66
2022/09/29 08:58:17;;;;;;;9.02;5.53;;;;;;;15.03;nan;99145.59;4940135;28;20039;-67
2022/09/29 09:00:57;;;;;;;10.32;6.70;;;;;;;14.89;nan;99144.03;4938643;28;20471;-67
2022/09/29 09:03:32;;;;;;;8.10;5.93;;;;;;;14.90;nan;99149.16;4935159;28;20056;-67
2022/09/29 09:06:18;;;;;;;11.13;7.47;;;;;;;14.81;nan;99145.09;4939393;28;20520;-67
2022/09/29 09:08:59;;;;;;;9.25;6.75;;;;;;;14.53;nan;99151.53;4941845;28;20062;-66
2022/09/29 09:12:04;;;;;;;8.60;6.00;;;;;;;14.63;nan;99146.63;4936883;28;20485;-67
2022/09/29 09:14:49;;;;;;;6.95;5.25;;;;;;;14.79;nan;99139.19;4920841;28;20063;-66
2022/09/29 09:17:32;;;;;;;7.75;5.00;;;;;;;14.81;nan;99142.44;4935658;28;20036;-66
2022/09/29 09:20:09;;;;;;;8.70;5.15;;;;;;;14.82;nan;99155.50;4948817;28;20049;-67
2022/09/29 09:22:54;;;;;;;6.60;5.43;;;;;;;14.96;nan;99155.44;4938234;28;20043;-67
2022/09/29 09:25:23;;;;;;;7.45;6.18;;;;;;;15.03;nan;99153.56;4911741;29;20048;-67
2022/09/29 09:28:05;;;;;;;7.70;5.18;;;;;;;15.20;nan;99154.66;4932116;28;20209;-66
2022/09/29 09:30:43;;;;;;;7.70;6.10;;;;;;;15.60;nan;99153.56;4924043;29;20027;-67
2022/09/29 09:33:46;;;;;;;7.15;5.50;;;;;;;15.92;nan;99148.97;4933816;28;20134;-67
2022/09/29 09:36:17;;;;;;;7.05;5.10;;;;;;;16.26;nan;99154.81;4920043;28;20051;-67
2022/09/29 09:39:03;;;;;;;7.35;4.93;;;;;;;16.37;nan;99158.56;4934650;28;20051;-67
2022/09/29 09:41:31;;;;;;;7.50;4.78;;;;;;;16.63;nan;99160.09;4924222;28;20587;-67
2022/09/29 09:44:18;;;;;;;8.73;4.85;;;;;;;17.15;nan;99163.94;4937516;28;20071;-68
2022/09/29 09:46:51;;;;;;;6.05;4.65;;;;;;;18.20;nan;99164.25;4929213;28;20430;-69
2022/09/29 09:49:16;;;;;;;7.55;5.03;;;;;;;19.64;nan;99160.53;4930907;28;20032;-67
2022/09/29 09:52:02;;;;;;;6.73;4.87;;;;;;;20.86;nan;99163.25;4931007;29;20524;-67
2022/09/29 09:54:54;;;;;;;6.05;4.82;;;;;;;21.27;nan;99169.00;4935611;28;20063;-65
2022/09/29 09:57:51;;;;;;;4.57;3.60;;;;;;;22.91;nan;99167.31;4912874;29;20079;-65
2022/09/29 10:00:24;;;;;;;7.30;3.60;;;;;;;24.16;nan;99165.94;4922185;28;20039;-65
2022/09/29 10:02:53;;;;;;;5.53;3.85;;;;;;;24.10;nan;99163.56;4946033;28;20043;-65
2022/09/29 10:05:29;;;;;;;6.03;3.67;;;;;;;23.87;nan;99165.75;4934145;28;20043;-65
2022/09/29 10:07:55;;;;;;;4.85;3.30;;;;;;;22.88;nan;99157.03;4929904;28;20084;-65
2022/09/29 10:10:23;;;;;;;6.43;3.05;;;;;;;22.32;nan;99167.63;4944564;28;20074;-65
2022/09/29 10:13:10;;;;;;;7.57;4.32;;;;;;;21.66;nan;99160.72;4950758;28;20114;-68
2022/09/29 10:15:41;;;;;;;6.70;3.88;;;;;;;21.38;nan;99157.28;4936019;28;20059;-65
2022/09/29 10:18:41;;;;;;;4.60;3.42;;;;;;;22.83;nan;99163.22;4932039;28;20036;-66
2022/09/29 10:21:19;;;;;;;6.68;3.70;;;;;;;;;;4919316;28;20467;-65
2022/09/29 10:23:55;;;;;;;5.28;3.15;;;;;;;22.88;nan;99165.13;4931436;28;20039;-65
2022/09/29 10:26:28;;;;;;;4.28;2.92;;;;;;;23.42;nan;99170.06;4935105;28;20278;-66
2022/09/29 10:29:48;;;;;;;6.70;4.00;;;;;;;22.94;nan;99168.66;4929681;28;20516;-66
2022/09/29 10:32:35;;;;;;;5.82;2.80;;;;;;;22.03;nan;99176.88;4927374;28;20051;-66
2022/09/29 10:35:06;;;;;;;4.47;2.80;;;;;;;21.33;nan;99178.75;4917794;29;20036;-65
2022/09/29 10:37:41;;;;;;;3.50;2.22;;;;;;;22.61;nan;99173.41;4940260;28;20517;-68
2022/09/29 10:40:07;;;;;;;4.10;2.60;;;;;;;24.43;nan;99172.91;4920833;28;20044;-67
2022/09/29 10:42:37;;;;;;;4.30;2.00;;;;;;;26.28;nan;99177.78;4943310;28;20035;-66
2022/09/29 10:45:22;;;;;;;;;;;;;;;27.29;nan;99168.59;4935202;28;20047;-66
2022/09/29 10:48:07;;;;;;;3.83;2.20;;;;;;;28.23;nan;99174.88;4943803;28;20394;-66
2022/09/29 10:50:47;;;;;;;2.67;1.77;;;;;;;28.98;nan;99173.56;4942234;28;20417;-66
2022/09/29 10:53:24;;;;;;;;;;;;;;;29.60;nan;99168.31;4938819;28;20455;-66
2022/09/29 10:55:52;;;;;;;;;;;;;;;30.42;nan;99173.53;4927307;28;20896;-66
2022/09/29 10:58:23;;;;;;;;;;;;;;;30.53;nan;99174.81;4947483;28;20195;-66
2022/09/29 11:00:48;;;;;;;;;;;;;;;30.62;nan;99172.13;4934083;28;19923;-66
2022/09/29 11:03:22;;;;;;;;;;;;;;;30.93;nan;99169.28;4941683;28;19921;-67
2022/09/29 11:06:11;;;;;;;5.97;2.42;;;;;;;28.71;nan;99171.75;4932575;28;19919;-67
2022/09/29 11:09:03;;;;;;;2.40;1.58;;;;;;;29.64;nan;99166.56;4934099;29;20412;-67
2022/09/29 11:11:41;;;;;;;2.88;1.60;;;;;;;29.86;nan;99170.38;4933936;28;20421;-66
2022/09/29 11:14:22;;;;;;;3.17;1.70;;;;;;;29.23;nan;99166.78;4941326;28;20417;-67
2022/09/29 11:16:56;;;;;;;3.63;1.70;;;;;;;29.57;nan;99165.41;4932733;28;20964;-68
2022/09/29 11:19:22;;;;;;;3.03;1.60;;;;;;;30.16;nan;99168.75;4942356;28;20967;-66
2022/09/29 11:22:05;;;;;;;3.10;1.77;;;;;;;30.82;nan;99167.97;4941598;28;20572;-66
2022/09/29 11:24:52;;;;;;;4.53;2.17;;;;;;;30.97;nan;99164.00;4939654;28;20523;-66
2022/09/29 11:27:30;;;;;;;2.72;1.38;;;;;;;30.69;nan;99170.50;4939256;28;20123;-66
2022/09/29 11:30:05;;;;;;;3.17;1.70;;;;;;;29.35;nan;99166.22;4943581;28;20035;-66
2022/09/29 11:33:00;;;;;;;2.53;1.50;;;;;;;28.15;nan;99168.22;4938188;28;20065;-64
2022/09/29 11:36:18;;;;;;;2.65;1.55;;;;;;;26.42;nan;99167.06;4920583;28;20050;-66
2022/09/29 11:38:52;;;;;;;3.92;1.60;;;;;;;25.84;nan;99168.75;4882589;29;20081;-66
2022/09/29 11:42:04;;;;;;;4.63;2.00;;;;;;;25.20;nan;99167.94;4885294;29;20699;-66
2022/09/29 11:44:57;;;;;;;3.15;1.85;;;;;;;24.02;nan;99164.91;4900987;29;20121;-66
2022/09/29 11:47:40;;;;;;;3.20;1.70;;;;;;;23.19;nan;99165.19;4929995;28;20035;-66
2022/09/29 11:50:06;;;;;;;3.27;1.30;;;;;;;23.34;nan;99176.03;4936731;28;20415;-67
2022/09/29 11:53:05;;;;;;;4.90;1.52;;;;;;;22.63;nan;99163.97;4930513;28;20388;-66
2022/09/29 11:55:31;;;;;;;;;;;;;;;22.04;nan;99172.28;4929106;28;20042;-66
2022/09/29 11:58:13;;;;;;;3.25;1.23;;;;;;;21.78;nan;99166.72;4929832;29;19918;-66
2022/09/29 12:01:03;;;;;;;3.60;1.80;;;;;;;21.67;nan;99170.44;4933583;28;20443;-66
2022/09/29 12:03:50;;;;;;;2.45;1.50;;;;;;;21.49;nan;99163.56;4934348;28;20445;-66
2022/09/29 12:06:50;;;;;;;3.00;1.40;;;;;;;21.25;nan;99164.94;4935461;28;20519;-66
2022/09/29 12:09:39;;;;;;;3.70;1.70;;;;;;;20.97;nan;99167.66;4926959;28;20414;-66
2022/09/29 12:12:17;;;;;;;3.58;1.75;;;;;;;20.92;nan;99161.41;4934705;28;20556;-66
2022/09/29 12:15:14;;;;;;;3.22;1.88;;;;;;;20.63;nan;99158.16;4932979;29;20093;-66
2022/09/29 12:17:46;;;;;;;3.58;1.50;;;;;;;20.55;nan;99162.06;4924130;29;20047;-66
2022/09/29 12:20:28;;;;;;;3.88;1.70;;;;;;;20.55;nan;99151.31;4941673;28;20086;-66
2022/09/29 12:22:57;;;;;;;4.30;1.42;;;;;;;20.14;nan;99146.25;4942423;28;20126;-65